createdAt,value
2022-11-17T00:00:45.656Z,11.70
2022-11-17T00:04:46.851Z,11.90
2022-11-17T00:08:48.579Z,11.90
2022-11-17T00:13:08.273Z,11.80
2022-11-17T00:17:12.180Z,11.70
2022-11-17T00:21:18.254Z,11.80
2022-11-17T00:25:19.357Z,11.80
2022-11-17T00:29:20.778Z,11.70
2022-11-17T00:33:40.387Z,11.80
2022-11-17T00:37:43.668Z,11.90
2022-11-17T00:41:44.952Z,11.90
2022-11-17T00:45:46.160Z,11.70
2022-11-17T00:49:47.314Z,11.60
2022-11-17T00:53:48.692Z,11.60
2022-11-17T00:57:49.937Z,11.40
2022-11-17T01:01:51.289Z,11.50
2022-11-17T01:05:52.475Z,11.50
2022-11-17T01:09:53.564Z,11.70
2022-11-17T01:13:57.762Z,11.70
2022-11-17T01:17:58.921Z,11.70
2022-11-17T01:22:03.676Z,11.30
2022-11-17T01:26:08.062Z,11.10
2022-11-17T01:30:12.551Z,11.30
2022-11-17T01:34:13.657Z,11.30
2022-11-17T01:38:14.839Z,11.20
2022-11-17T01:42:19.330Z,11.20
2022-11-17T01:46:36.194Z,11.30
2022-11-17T01:50:40.416Z,11.30
2022-11-17T01:54:43.693Z,11.30
2022-11-17T01:58:48.645Z,11.40
2022-11-17T02:02:51.030Z,11.40
2022-11-17T02:06:55.935Z,11.40
2022-11-17T02:10:57.803Z,11.50
2022-11-17T02:15:00.323Z,11.40
2022-11-17T02:19:01.519Z,11.40
2022-11-17T02:23:21.757Z,11.40
2022-11-17T02:27:29.572Z,11.30
2022-11-17T02:31:52.503Z,11.30
2022-11-17T02:36:09.862Z,11.30
2022-11-17T02:40:18.007Z,11.30
2022-11-17T02:44:39.217Z,11.30
2022-11-17T02:48:47.221Z,11.30
2022-11-17T02:52:48.319Z,11.30
2022-11-17T02:56:49.584Z,11.40
2022-11-17T03:00:57.473Z,11.40
2022-11-17T03:05:17.814Z,11.50
2022-11-17T03:09:22.728Z,11.40
2022-11-17T03:13:30.372Z,11.50
2022-11-17T03:17:41.336Z,11.50
2022-11-17T03:21:52.379Z,11.50
2022-11-17T03:25:57.325Z,11.50
2022-11-17T03:30:01.917Z,11.60
2022-11-17T03:34:06.495Z,11.50
2022-11-17T03:38:11.375Z,11.40
2022-11-17T03:42:22.347Z,11.60
2022-11-17T03:46:25.828Z,11.60
2022-11-17T03:50:39.934Z,11.60
2022-11-17T03:54:41.399Z,11.60
2022-11-17T03:58:55.550Z,11.70
2022-11-17T04:03:00.119Z,11.80
2022-11-17T04:07:01.316Z,11.80
2022-11-17T04:11:22.613Z,11.80
2022-11-17T04:15:43.246Z,12.00
2022-11-17T04:19:44.346Z,12.00
2022-11-17T04:23:45.483Z,12.00
2022-11-17T04:28:05.171Z,12.20
2022-11-17T04:32:06.329Z,12.30
2022-11-17T04:36:09.131Z,12.20
2022-11-17T04:40:10.563Z,12.30
2022-11-17T04:44:14.698Z,12.40
2022-11-17T04:48:15.880Z,12.30
2022-11-17T04:52:16.946Z,12.20
2022-11-17T04:56:19.708Z,12.10
2022-11-17T05:00:20.899Z,11.80
2022-11-17T05:04:40.623Z,11.90
2022-11-17T05:08:42.462Z,11.90
2022-11-17T05:13:02.288Z,12.00
2022-11-17T05:17:10.069Z,11.90
2022-11-17T05:21:11.159Z,12.00
2022-11-17T05:25:13.027Z,11.90
2022-11-17T05:29:17.302Z,11.80
2022-11-17T05:33:18.451Z,11.70
2022-11-17T05:37:19.538Z,11.70
2022-11-17T05:41:21.631Z,11.70
2022-11-17T05:45:22.815Z,11.70
2022-11-17T05:49:24.002Z,11.70
2022-11-17T05:53:26.388Z,11.70
2022-11-17T05:57:30.065Z,11.80
2022-11-17T06:01:33.127Z,11.90
2022-11-17T06:05:34.445Z,11.80
2022-11-17T06:09:38.614Z,11.80
2022-11-17T06:13:39.719Z,11.90
2022-11-17T06:17:44.582Z,11.90
2022-11-17T06:22:10.657Z,11.80
2022-11-17T06:25:48.897Z,11.70
2022-11-17T06:29:49.992Z,11.70
2022-11-17T06:33:51.268Z,11.60
2022-11-17T06:37:52.465Z,11.50
2022-11-17T06:41:53.650Z,11.60
2022-11-17T06:45:54.715Z,11.60
2022-11-17T06:49:55.765Z,11.60
2022-11-17T06:53:56.850Z,11.60
2022-11-17T06:58:05.671Z,11.60
2022-11-17T07:02:06.840Z,11.50
2022-11-17T07:06:10.263Z,11.50
2022-11-17T07:10:11.402Z,11.60
2022-11-17T07:14:12.486Z,11.70
2022-11-17T07:18:13.653Z,11.70
2022-11-17T07:22:14.729Z,11.80
2022-11-17T07:26:15.797Z,11.90
2022-11-17T07:30:16.966Z,12.00
2022-11-17T07:34:18.145Z,12.10
2022-11-17T07:38:19.314Z,12.20
2022-11-17T07:42:20.390Z,12.20
2022-11-17T07:46:21.582Z,12.40
2022-11-17T07:50:24.444Z,12.40
2022-11-17T07:54:25.624Z,12.40
2022-11-17T07:58:29.074Z,12.30
2022-11-17T08:02:30.307Z,12.30
2022-11-17T08:06:31.449Z,12.30
2022-11-17T08:10:33.699Z,12.40
2022-11-17T08:14:34.777Z,12.40
2022-11-17T08:18:37.000Z,12.60
2022-11-17T08:22:38.450Z,12.80
2022-11-17T08:26:39.509Z,12.70
2022-11-17T08:30:43.738Z,12.80
2022-11-17T08:34:45.026Z,12.80
2022-11-17T08:38:46.122Z,12.90
2022-11-17T08:42:53.837Z,12.90
2022-11-17T08:46:54.081Z,13.00
2022-11-17T08:50:55.236Z,13.10
2022-11-17T08:54:56.451Z,13.20
2022-11-17T08:58:57.708Z,13.30
2022-11-17T09:02:59.065Z,13.30
2022-11-17T09:07:00.204Z,13.40
2022-11-17T09:11:10.204Z,13.30
2022-11-17T09:15:11.570Z,13.20
2022-11-17T09:19:12.757Z,13.20
2022-11-17T09:23:13.940Z,13.30
2022-11-17T09:27:15.025Z,13.30
2022-11-17T09:31:19.058Z,13.50
2022-11-17T09:35:21.905Z,13.80
2022-11-17T09:39:27.034Z,13.80
2022-11-17T09:43:34.930Z,13.80
2022-11-17T09:47:43.134Z,13.60
2022-11-17T09:51:47.811Z,13.50
2022-11-17T09:55:52.813Z,13.50
2022-11-17T09:59:57.807Z,13.50
2022-11-17T10:04:00.818Z,13.60
2022-11-17T10:08:07.709Z,14.10
2022-11-17T10:12:21.271Z,14.20
2022-11-17T10:16:22.646Z,14.10
2022-11-17T10:20:23.903Z,13.80
2022-11-17T10:24:38.063Z,13.70
2022-11-17T10:28:39.971Z,13.90
2022-11-17T10:32:53.049Z,13.90
2022-11-17T10:36:54.155Z,13.90
2022-11-17T10:40:58.457Z,14.10
2022-11-17T10:45:00.958Z,14.60
2022-11-17T10:49:04.350Z,15.00
2022-11-17T10:53:15.210Z,15.40
2022-11-17T10:57:22.410Z,15.40
2022-11-17T11:01:41.063Z,15.10
2022-11-17T11:06:01.333Z,15.10
2022-11-17T11:10:26.310Z,15.30
2022-11-17T11:14:35.634Z,15.30
2022-11-17T11:18:38.205Z,15.00
2022-11-17T11:22:58.455Z,14.60
2022-11-17T11:27:03.425Z,14.30
2022-11-17T11:31:11.483Z,13.80
2022-11-17T11:35:34.619Z,13.80
2022-11-17T11:39:39.521Z,13.60
2022-11-17T11:43:53.543Z,13.80
2022-11-17T11:48:01.411Z,13.90
2022-11-17T11:52:06.221Z,13.70
2022-11-17T11:56:11.209Z,13.70
2022-11-17T12:00:17.569Z,13.50
2022-11-17T12:04:22.560Z,13.20
2022-11-17T12:08:27.585Z,13.20
2022-11-17T12:12:35.200Z,13.00
2022-11-17T12:16:36.383Z,13.00
2022-11-17T12:20:41.384Z,13.00
2022-11-17T12:24:42.550Z,13.30
2022-11-17T12:28:43.740Z,13.70
2022-11-17T12:32:50.927Z,13.40
2022-11-17T12:37:15.744Z,13.70
2022-11-17T12:41:23.698Z,13.40
2022-11-17T12:45:24.932Z,13.30
2022-11-17T12:49:32.545Z,13.20
2022-11-17T12:53:57.607Z,13.00
2022-11-17T12:58:10.305Z,12.70
2022-11-17T13:02:32.174Z,12.40
2022-11-17T13:06:35.861Z,12.60
2022-11-17T13:10:36.913Z,12.60
2022-11-17T13:14:59.263Z,12.80
2022-11-17T13:19:00.462Z,12.90
2022-11-17T13:23:14.730Z,12.90
2022-11-17T13:27:27.910Z,12.90
2022-11-17T13:31:29.100Z,12.60
2022-11-17T13:35:32.717Z,12.60
2022-11-17T13:39:33.840Z,12.50
2022-11-17T13:43:38.684Z,12.60
2022-11-17T13:47:44.802Z,12.70
2022-11-17T13:51:46.075Z,12.80
2022-11-17T13:55:47.627Z,12.80
2022-11-17T13:59:49.543Z,12.90
2022-11-17T14:03:51.942Z,13.20
2022-11-17T14:07:56.246Z,13.00
2022-11-17T14:11:58.019Z,13.00
2022-11-17T14:16:01.556Z,13.10
2022-11-17T14:20:22.158Z,12.80
2022-11-17T14:24:23.356Z,12.90
2022-11-17T14:28:24.441Z,13.10
2022-11-17T14:32:25.716Z,13.10
2022-11-17T14:36:27.534Z,13.30
2022-11-17T14:40:28.714Z,13.40
2022-11-17T14:44:29.788Z,13.50
2022-11-17T14:48:31.178Z,13.30
2022-11-17T14:52:32.359Z,13.20
2022-11-17T14:56:34.232Z,13.20
2022-11-17T15:00:35.352Z,13.20
2022-11-17T15:04:55.471Z,13.00
2022-11-17T15:08:43.391Z,13.00
2022-11-17T15:12:44.491Z,12.90
2022-11-17T15:16:45.595Z,13.00
2022-11-17T15:20:46.780Z,12.80
2022-11-17T15:24:47.847Z,12.50
2022-11-17T15:28:49.134Z,12.40
2022-11-17T15:32:50.392Z,12.30
2022-11-17T15:36:51.480Z,12.20
2022-11-17T15:40:54.169Z,12.10
2022-11-17T15:44:55.293Z,12.10
2022-11-17T15:48:56.417Z,12.00
2022-11-17T15:53:04.087Z,12.00
2022-11-17T15:57:02.155Z,12.00
2022-11-17T16:01:13.514Z,12.00
2022-11-17T16:05:14.697Z,11.80
2022-11-17T16:09:16.276Z,11.70
2022-11-17T16:13:17.573Z,11.60
2022-11-17T16:17:18.673Z,11.70
2022-11-17T16:21:19.983Z,11.70
2022-11-17T16:25:21.155Z,11.70
2022-11-17T16:29:22.343Z,11.60
2022-11-17T16:33:23.621Z,11.70
2022-11-17T16:37:24.711Z,11.80
2022-11-17T16:41:28.905Z,11.80
2022-11-17T16:45:30.171Z,11.90
2022-11-17T16:49:32.055Z,11.60
2022-11-17T16:53:33.446Z,11.50
2022-11-17T16:57:34.707Z,11.70
2022-11-17T17:01:36.408Z,11.80
2022-11-17T17:05:39.614Z,11.80
2022-11-17T17:09:41.376Z,12.00
2022-11-17T17:13:42.782Z,12.00
2022-11-17T17:17:43.922Z,12.00
2022-11-17T17:21:45.279Z,11.90
2022-11-17T17:25:46.440Z,11.90
2022-11-17T17:29:47.501Z,11.80
2022-11-17T17:33:50.288Z,11.40
2022-11-17T17:37:51.636Z,11.40
2022-11-17T17:41:52.801Z,11.10
2022-11-17T17:46:02.193Z,10.80
2022-11-17T17:50:03.953Z,10.70
2022-11-17T17:54:05.973Z,10.80
2022-11-17T17:58:08.021Z,10.80
2022-11-17T18:02:09.423Z,11.20
2022-11-17T18:06:10.769Z,11.40
2022-11-17T18:10:11.830Z,11.40
2022-11-17T18:14:16.846Z,11.60
2022-11-17T18:18:18.131Z,11.70
2022-11-17T18:22:19.270Z,11.70
2022-11-17T18:26:23.051Z,11.80
2022-11-17T18:30:24.264Z,11.80
2022-11-17T18:34:25.930Z,11.90
2022-11-17T18:38:27.078Z,11.90
2022-11-17T18:42:28.251Z,11.90
2022-11-17T18:46:31.175Z,11.90
2022-11-17T18:50:32.593Z,11.90
2022-11-17T18:54:33.762Z,11.90
2022-11-17T18:58:35.622Z,11.60
2022-11-17T19:02:36.814Z,11.40
2022-11-17T19:06:37.902Z,11.00
2022-11-17T19:10:39.091Z,11.10
2022-11-17T19:14:40.178Z,11.40
2022-11-17T19:18:42.746Z,11.70
2022-11-17T19:22:43.980Z,11.80
2022-11-17T19:26:45.393Z,11.70
2022-11-17T19:30:46.557Z,11.70
2022-11-17T19:34:47.682Z,11.70
2022-11-17T19:38:51.666Z,11.80
2022-11-17T19:42:52.834Z,11.80
2022-11-17T19:46:53.956Z,11.90
2022-11-17T19:50:56.115Z,11.80
2022-11-17T19:54:57.492Z,11.90
2022-11-17T19:58:59.420Z,11.80
2022-11-17T20:03:01.308Z,11.80
2022-11-17T20:07:04.627Z,11.80
2022-11-17T20:11:10.019Z,11.70
2022-11-17T20:15:32.983Z,11.70
2022-11-17T20:19:17.003Z,11.70
2022-11-17T20:23:49.882Z,11.70
2022-11-17T20:28:30.200Z,11.60
2022-11-17T20:36:46.635Z,11.70
2022-11-17T20:36:48.367Z,11.60
2022-11-17T20:41:27.208Z,11.40
2022-11-17T20:45:30.115Z,11.20
2022-11-17T20:49:31.859Z,11.00
2022-11-17T20:53:34.751Z,11.00
2022-11-17T20:57:38.933Z,10.90
2022-11-17T21:01:40.077Z,10.90
2022-11-17T21:05:41.424Z,10.90
2022-11-17T21:09:42.722Z,10.90
2022-11-17T21:13:43.922Z,11.00
2022-11-17T21:18:03.547Z,10.90
2022-11-17T21:22:04.706Z,10.90
2022-11-17T21:26:14.274Z,10.80
2022-11-17T21:30:15.375Z,10.80
2022-11-17T21:34:17.480Z,10.80
2022-11-17T21:38:18.669Z,10.90
2022-11-17T21:42:19.904Z,11.00
2022-11-17T21:46:29.733Z,10.90
2022-11-17T21:50:32.255Z,11.00
2022-11-17T21:54:34.841Z,10.90
2022-11-17T21:58:36.944Z,11.00
2022-11-17T22:02:39.202Z,11.10
2022-11-17T22:06:41.348Z,10.90
2022-11-17T22:10:43.159Z,11.00
2022-11-17T22:14:44.565Z,11.00
2022-11-17T22:18:46.169Z,11.10
2022-11-17T22:22:48.649Z,11.10
2022-11-17T22:26:51.163Z,11.20
2022-11-17T22:30:53.449Z,11.30
2022-11-17T22:34:56.063Z,11.30
2022-11-17T22:38:58.435Z,11.40
2022-11-17T22:43:04.321Z,11.50
2022-11-17T22:47:06.554Z,11.50
2022-11-17T22:51:08.734Z,11.40
2022-11-17T22:55:09.906Z,11.50
2022-11-17T22:59:11.182Z,11.50
2022-11-17T23:03:12.837Z,11.50
2022-11-17T23:07:14.065Z,11.40
2022-11-17T23:11:36.026Z,11.30
2022-11-17T23:15:18.645Z,11.20
2022-11-17T23:19:19.985Z,11.30
2022-11-17T23:23:21.507Z,11.30
2022-11-17T23:27:22.576Z,11.20
2022-11-17T23:31:23.735Z,11.10
2022-11-17T23:35:25.216Z,11.10
2022-11-17T23:39:26.371Z,11.10
2022-11-17T23:43:28.560Z,11.00
2022-11-17T23:47:29.768Z,11.00
2022-11-17T23:51:31.117Z,11.10
2022-11-17T23:55:32.206Z,11.10
2022-11-17T23:59:33.380Z,11.20
